Time;durP1;ratioP1;P1;durP2;ratioP2;P2;SDS_P1;SDS_P2;PMS_P1;PMS_P2;Temp;Humidity;BMP_temperature;BMP_pressure;BME280_temperature;BME280_humidity;BME280_pressure;Samples;Min_cycle;Max_cycle;Signal;HPM_P1;HPM_P2
2022/11/13 00:00:56;;;;;;;6.70;5.10;;;;;;;6.92;60.67;102121.88;106035;1304;23501;-61
2022/11/13 00:03:22;;;;;;;8.10;5.40;;;;;;;6.85;60.53;102117.84;106019;1305;21956;-69
2022/11/13 00:05:56;;;;;;;7.60;5.30;;;;;;;6.83;60.58;102114.64;106001;1306;21965;-61
2022/11/13 00:08:22;;;;;;;6.70;5.20;;;;;;;6.85;61.05;102115.04;105765;1306;22131;-61
2022/11/13 00:10:48;;;;;;;7.40;5.70;;;;;;;6.88;61.26;102111.98;106034;1304;23077;-69
2022/11/13 00:13:14;;;;;;;10.20;6.70;;;;;;;6.91;61.39;102109.27;106041;1300;21955;-69
2022/11/13 00:15:39;;;;;;;10.10;7.30;;;;;;;6.96;61.35;102105.59;106067;1303;21967;-61
2022/11/13 00:18:06;;;;;;;12.60;8.70;;;;;;;7.04;61.44;102101.83;106074;1304;21967;-69
2022/11/13 00:20:33;;;;;;;13.90;9.70;;;;;;;7.15;61.71;102097.79;106074;1304;21971;-68
2022/11/13 00:22:59;;;;;;;14.80;10.30;;;;;;;7.27;61.78;102098.31;106076;1304;21960;-68
2022/11/13 00:25:25;;;;;;;14.50;10.50;;;;;;;7.39;61.93;102095.33;106019;1304;23094;-62
2022/11/13 00:27:50;;;;;;;14.50;9.50;;;;;;;7.51;61.99;102094.25;105971;1304;21960;-68
2022/11/13 00:30:16;;;;;;;11.20;8.50;;;;;;;7.57;61.83;102096.52;104506;1304;1003063;-68
2022/11/13 00:32:42;;;;;;;9.50;7.30;;;;;;;7.60;61.63;102099.05;105965;1302;21964;-68
2022/11/13 00:35:08;;;;;;;8.80;6.50;;;;;;;7.59;61.41;102092.90;106068;1304;21947;-61
2022/11/13 00:37:34;;;;;;;9.20;6.70;;;;;;;7.57;61.39;102087.26;105989;1302;21966;-61
2022/11/13 00:40:00;;;;;;;8.00;5.40;;;;;;;7.53;61.31;102084.88;106070;1304;21976;-69
2022/11/13 00:42:25;;;;;;;7.00;5.30;;;;;;;7.50;60.93;102082.52;106064;1304;21959;-60
2022/11/13 00:44:51;;;;;;;9.00;6.40;;;;;;;7.46;60.92;102081.54;106093;1304;22048;-68
2022/11/13 00:47:17;;;;;;;8.40;6.40;;;;;;;7.43;60.95;102078.51;106031;1304;21970;-68
2022/11/13 00:49:42;;;;;;;7.10;5.30;;;;;;;7.41;61.01;102080.20;106046;1302;21945;-60
2022/11/13 00:52:08;;;;;;;6.80;5.00;;;;;;;7.35;60.98;102075.48;105995;1304;21969;-68
2022/11/13 00:54:35;;;;;;;6.10;4.10;;;;;;;7.32;60.83;102077.66;105982;1293;21963;-69
2022/11/13 00:57:01;;;;;;;7.80;5.20;;;;;;;7.23;60.78;102074.44;105977;1304;21978;-69
2022/11/13 00:59:26;;;;;;;8.20;5.60;;;;;;;7.16;60.60;102071.45;105998;1304;21976;-69
2022/11/13 01:01:52;;;;;;;9.20;6.30;;;;;;;7.11;60.55;102069.72;105969;1304;21944;-69
2022/11/13 01:04:18;;;;;;;12.50;8.40;;;;;;;7.06;60.83;102064.19;103761;1304;1008059;-61
2022/11/13 01:06:44;;;;;;;11.60;8.30;;;;;;;7.05;61.26;102059.08;105932;1304;21968;-69
2022/11/13 01:09:10;;;;;;;12.00;8.20;;;;;;;7.07;61.04;102054.27;105937;1304;22032;-61
2022/11/13 01:11:35;;;;;;;14.20;10.20;;;;;;;7.10;61.43;102052.78;105951;1304;21964;-69
2022/11/13 01:14:01;;;;;;;15.50;10.50;;;;;;;7.15;61.48;102052.58;105941;1304;21956;-60
2022/11/13 01:16:27;;;;;;;14.90;9.40;;;;;;;7.20;61.49;102055.15;105938;1304;21961;-61
2022/11/13 01:18:54;;;;;;;14.20;10.30;;;;;;;7.24;61.51;102051.44;105922;1304;22012;-62
2022/11/13 01:21:22;;;;;;;14.90;10.20;;;;;;;7.28;61.34;102044.37;106023;1301;21960;-61
2022/11/13 01:23:49;;;;;;;17.40;11.40;;;;;;;7.31;61.59;102041.31;105980;1301;21960;-61
2022/11/13 01:26:24;;;;;;;18.60;11.70;;;;;;;7.33;61.39;102041.20;105940;1305;22158;-61
2022/11/13 01:28:50;;;;;;;17.70;11.20;;;;;;;7.34;61.51;102038.23;105948;1304;21967;-61
2022/11/13 01:31:18;;;;;;;17.80;11.40;;;;;;;7.34;61.52;102035.29;105934;1305;21955;-61
2022/11/13 01:33:44;;;;;;;18.20;12.10;;;;;;;7.34;61.58;102031.77;106050;1307;21959;-69
2022/11/13 01:36:12;;;;;;;16.60;11.30;;;;;;;7.35;61.51;102033.90;105962;1304;21981;-61
2022/11/13 01:38:38;;;;;;;18.20;11.80;;;;;;;7.34;61.40;102035.98;106000;1304;21974;-61
2022/11/13 01:41:05;;;;;;;14.20;10.80;;;;;;;7.33;61.33;102038.21;105953;1304;21971;-68
2022/11/13 01:43:35;;;;;;;18.00;11.30;;;;;;;7.30;61.36;102039.54;105970;1304;21968;-68
2022/11/13 01:46:06;;;;;;;;;;;;;;;7.28;61.00;102039.16;105976;1304;21941;-69
2022/11/13 01:48:35;;;;;;;;;;;;;;;7.27;61.09;102037.90;106049;1305;21951;-61
2022/11/13 01:51:04;;;;;;;19.60;12.10;;;;;;;7.24;61.24;102036.94;105686;1306;21966;-61
2022/11/13 01:53:30;;;;;;;18.30;12.50;;;;;;;7.23;61.23;102035.17;105758;1306;22006;-68
2022/11/13 01:55:56;;;;;;;17.80;11.60;;;;;;;7.25;61.28;102033.30;105780;1306;21969;-61
2022/11/13 01:58:25;;;;;;;17.30;12.10;;;;;;;7.30;60.97;102033.61;105800;1306;21970;-68
2022/11/13 02:00:51;;;;;;;19.70;12.50;;;;;;;7.27;61.13;102029.52;105730;1299;21970;-67
2022/11/13 02:03:17;;;;;;;18.00;12.20;;;;;;;7.25;61.28;102032.95;105984;1304;21972;-68
2022/11/13 02:05:45;;;;;;;21.10;12.80;;;;;;;7.26;61.41;102033.52;105973;1304;21967;-61
2022/11/13 02:08:10;;;;;;;21.70;13.00;;;;;;;7.29;61.30;102035.85;105747;1306;21968;-62
2022/11/13 02:10:36;;;;;;;20.40;12.00;;;;;;;7.34;61.49;102035.10;105990;1306;21967;-61
2022/11/13 02:13:02;;;;;;;17.70;12.00;;;;;;;7.38;61.32;102029.27;105975;1306;22023;-68
2022/11/13 02:15:30;;;;;;;18.40;12.10;;;;;;;7.42;61.38;102029.92;105796;1306;21957;-61
2022/11/13 02:17:57;;;;;;;20.60;13.20;;;;;;;7.45;61.21;102031.39;105799;1306;22017;-62
2022/11/13 02:20:31;;;;;;;20.20;13.70;;;;;;;7.46;61.26;102031.59;105765;1306;21986;-68
2022/11/13 02:23:50;;;;;;;20.60;12.90;;;;;;;7.44;61.49;102029.81;106054;1304;22012;-68
2022/11/13 02:26:16;;;;;;;20.60;12.80;;;;;;;7.47;60.81;102032.31;105615;1309;21986;-68
2022/11/13 02:28:41;;;;;;;18.30;12.90;;;;;;;7.42;60.97;102033.60;105467;1311;21979;-62
2022/11/13 02:31:09;;;;;;;17.80;11.90;;;;;;;7.41;60.80;102027.98;105800;1304;21974;-62
2022/11/13 02:33:34;;;;;;;19.20;13.40;;;;;;;7.38;60.95;102029.45;106071;1306;21972;-68
2022/11/13 02:36:00;;;;;;;20.90;13.40;;;;;;;7.28;61.18;102031.10;106146;1304;21959;-61
2022/11/13 02:38:27;;;;;;;22.30;13.60;;;;;;;7.23;61.38;102029.58;106080;1307;21969;-68
2022/11/13 02:40:53;;;;;;;23.60;14.90;;;;;;;7.23;61.62;102033.25;105830;1306;21973;-61
2022/11/13 02:43:18;;;;;;;23.10;15.30;;;;;;;7.28;62.17;102035.48;105985;1302;21955;-69
2022/11/13 02:45:44;;;;;;;23.10;15.60;;;;;;;7.33;62.03;102031.23;105958;1303;21979;-68
2022/11/13 02:48:10;;;;;;;22.40;14.10;;;;;;;7.39;61.82;102029.48;105969;1300;21975;-62
2022/11/13 02:50:36;;;;;;;22.50;14.80;;;;;;;7.47;61.93;102031.60;105961;1304;21970;-61
2022/11/13 02:53:02;;;;;;;22.90;15.10;;;;;;;7.54;62.04;102032.67;105989;1304;21965;-68
2022/11/13 02:55:28;;;;;;;24.40;15.30;;;;;;;7.60;62.05;102029.88;106057;1304;21962;-69
2022/11/13 02:57:54;;;;;;;22.90;16.20;;;;;;;7.66;61.88;102023.56;106049;1305;21983;-68
2022/11/13 03:00:19;;;;;;;23.70;15.50;;;;;;;7.71;61.68;102024.74;106086;1305;21971;-68
2022/11/13 03:02:45;;;;;;;23.50;15.10;;;;;;;7.75;61.95;102023.44;105958;1304;21951;-61
2022/11/13 03:05:10;;;;;;;23.50;15.30;;;;;;;7.77;61.88;102022.77;105979;1305;21969;-69
2022/11/13 03:07:36;;;;;;;23.50;15.60;;;;;;;7.79;62.05;102028.61;106001;1304;21953;-69
2022/11/13 03:10:03;;;;;;;22.60;14.80;;;;;;;7.80;61.79;102025.81;106028;1304;22025;-61
2022/11/13 03:12:28;;;;;;;23.30;15.90;;;;;;;7.78;61.71;102024.91;106070;1304;21949;-61
2022/11/13 03:14:59;;;;;;;23.00;14.30;;;;;;;7.76;61.65;102021.70;106082;1306;21962;-69
2022/11/13 03:17:25;;;;;;;21.80;13.90;;;;;;;7.74;61.63;102018.52;105760;1306;21978;-68
2022/11/13 03:19:53;;;;;;;22.50;15.10;;;;;;;7.73;62.05;102017.11;105980;1299;21960;-61
2022/11/13 03:22:19;;;;;;;23.60;15.70;;;;;;;7.75;61.64;102017.50;106005;1304;21968;-62
2022/11/13 03:24:45;;;;;;;23.30;15.60;;;;;;;7.74;61.59;102013.11;106027;1304;22013;-61
2022/11/13 03:27:10;;;;;;;20.40;14.10;;;;;;;7.73;61.68;102016.92;106030;1301;21966;-62
2022/11/13 03:29:36;;;;;;;21.60;14.90;;;;;;;7.72;61.73;102014.64;105986;1305;21970;-68
2022/11/13 03:32:02;;;;;;;21.60;14.10;;;;;;;7.71;61.46;102014.62;106023;1304;21987;-68
2022/11/13 03:34:28;;;;;;;20.60;13.90;;;;;;;7.70;61.28;102015.10;105949;1304;21964;-62
2022/11/13 03:36:54;;;;;;;23.30;15.80;;;;;;;7.64;61.69;102015.66;105990;1304;21975;-61
2022/11/13 03:39:20;;;;;;;22.40;14.90;;;;;;;7.58;61.66;102015.48;105970;1299;21972;-61
2022/11/13 03:41:46;;;;;;;24.90;15.70;;;;;;;7.55;61.42;102011.40;106032;1305;21962;-69
2022/11/13 03:44:11;;;;;;;22.70;15.20;;;;;;;7.56;61.67;102010.88;105994;1304;21983;-61
2022/11/13 03:46:37;;;;;;;27.00;15.90;;;;;;;7.58;61.90;102008.52;106014;1304;21963;-61
2022/11/13 03:49:03;;;;;;;19.00;14.30;;;;;;;7.61;61.64;102008.59;105993;1305;21963;-69
2022/11/13 03:51:29;;;;;;;24.60;15.70;;;;;;;7.64;61.63;102010.23;106033;1304;21974;-61
2022/11/13 03:53:54;;;;;;;24.10;14.80;;;;;;;7.67;61.91;102012.08;106069;1304;21976;-63
2022/11/13 03:56:20;;;;;;;23.40;15.10;;;;;;;7.70;61.71;102013.73;106129;1304;21962;-69
2022/11/13 03:58:46;;;;;;;25.40;16.10;;;;;;;7.73;61.64;102013.80;106085;1304;21963;-63
2022/11/13 04:01:12;;;;;;;23.20;15.90;;;;;;;7.78;61.57;102012.51;106098;1304;21966;-61
2022/11/13 04:03:38;;;;;;;20.50;13.80;;;;;;;7.81;61.55;102014.34;106055;1304;21970;-69
2022/11/13 04:06:04;;;;;;;23.60;15.20;;;;;;;7.82;61.51;102013.84;105995;1304;21962;-61
2022/11/13 04:08:30;;;;;;;23.70;15.80;;;;;;;7.81;61.55;102008.75;105986;1305;22005;-62
2022/11/13 04:11:10;;;;;;;22.20;15.00;;;;;;;7.82;61.67;102011.55;105942;1304;21975;-61
2022/11/13 04:13:36;;;;;;;22.50;15.00;;;;;;;7.82;61.50;102014.17;105940;1306;21955;-62
2022/11/13 04:16:02;;;;;;;21.10;15.00;;;;;;;7.80;61.50;102009.05;105945;1305;21976;-62
2022/11/13 04:18:31;;;;;;;21.10;14.70;;;;;;;7.79;61.42;102008.15;105951;1301;22021;-62
2022/11/13 04:20:59;;;;;;;21.20;14.30;;;;;;;7.77;61.37;102006.52;105887;1304;21974;-69
2022/11/13 04:23:25;;;;;;;19.60;14.50;;;;;;;7.75;61.28;102004.92;106013;1304;21969;-63
2022/11/13 04:25:52;;;;;;;20.50;13.50;;;;;;;7.75;61.27;102003.17;105990;1305;21963;-70
2022/11/13 04:28:17;;;;;;;20.90;14.10;;;;;;;7.79;61.23;102005.88;105901;1305;23302;-63
2022/11/13 04:30:43;;;;;;;21.00;14.70;;;;;;;7.80;61.15;102007.30;105937;1304;21965;-62
2022/11/13 04:33:09;;;;;;;21.20;14.80;;;;;;;7.80;61.14;102005.39;105935;1301;21965;-64
2022/11/13 04:35:35;;;;;;;21.30;13.60;;;;;;;7.78;60.93;102015.14;105989;1304;21996;-62
2022/11/13 04:38:01;;;;;;;20.30;13.20;;;;;;;7.76;61.14;102015.23;104471;1306;1004277;-63
2022/11/13 04:40:27;;;;;;;19.70;13.00;;;;;;;7.75;61.13;102012.60;105980;1304;21973;-63
2022/11/13 04:42:53;;;;;;;20.30;13.70;;;;;;;7.74;60.93;102009.09;105794;1306;21980;-63
2022/11/13 04:45:21;;;;;;;23.90;15.30;;;;;;;7.73;60.87;102008.37;106063;1304;21971;-63
2022/11/13 04:47:51;;;;;;;24.50;15.00;;;;;;;7.71;60.98;102009.38;105912;1307;21961;-63
2022/11/13 04:50:17;;;;;;;23.20;15.00;;;;;;;7.71;60.66;102007.79;105884;1306;22244;-69
2022/11/13 04:52:43;;;;;;;23.00;13.80;;;;;;;7.71;60.99;102009.02;105243;1304;1002538;-68
2022/11/13 04:55:11;;;;;;;19.30;13.80;;;;;;;7.72;61.11;102011.85;106015;1304;21969;-63
2022/11/13 04:57:36;;;;;;;23.70;14.50;;;;;;;7.72;61.11;102013.77;105994;1304;21971;-70
2022/11/13 05:00:06;;;;;;;23.70;15.10;;;;;;;7.73;61.15;102014.83;106019;1306;21966;-66
2022/11/13 05:02:33;;;;;;;22.60;14.40;;;;;;;7.72;61.22;102010.45;106040;1304;21959;-69
2022/11/13 05:04:59;;;;;;;23.60;14.40;;;;;;;7.71;61.05;102011.64;106100;1304;21969;-61
2022/11/13 05:07:26;;;;;;;20.50;13.00;;;;;;;7.72;60.86;102017.25;105888;1305;21957;-61
2022/11/13 05:09:52;;;;;;;22.10;15.40;;;;;;;7.72;60.74;102017.59;106024;1304;21959;-60
2022/11/13 05:12:19;;;;;;;31.10;15.20;;;;;;;7.73;61.01;102020.23;106002;1304;21966;-70
2022/11/13 05:14:48;;;;;;;24.90;15.40;;;;;;;7.73;61.16;102018.50;105992;1304;21964;-72
2022/11/13 05:17:14;;;;;;;22.00;14.70;;;;;;;7.73;60.98;102016.06;105725;1306;21969;-69
2022/11/13 05:19:42;;;;;;;21.20;14.20;;;;;;;7.72;60.91;102010.63;106020;1304;21958;-61
2022/11/13 05:22:09;;;;;;;24.20;14.10;;;;;;;7.73;60.99;102006.45;106005;1304;21981;-62
2022/11/13 05:24:35;;;;;;;18.80;14.00;;;;;;;7.76;61.14;102003.90;106016;1302;22033;-62
2022/11/13 05:27:00;;;;;;;25.20;16.80;;;;;;;7.79;61.04;102005.35;106056;1301;21963;-70
2022/11/13 05:29:26;;;;;;;29.60;15.20;;;;;;;7.80;61.18;102004.67;106029;1304;21960;-71
2022/11/13 05:31:52;;;;;;;21.70;14.80;;;;;;;7.81;61.13;102005.05;105978;1305;21965;-70
2022/11/13 05:34:17;;;;;;;23.00;13.90;;;;;;;7.83;61.22;102011.58;105995;1304;21984;-62
2022/11/13 05:36:43;;;;;;;20.40;14.30;;;;;;;7.87;61.06;102018.15;106018;1304;21975;-68
2022/11/13 05:39:10;;;;;;;23.00;14.40;;;;;;;7.91;61.21;102018.61;105994;1304;21964;-69
2022/11/13 05:41:35;;;;;;;22.40;15.90;;;;;;;7.96;61.14;102015.57;105992;1305;23064;-61
2022/11/13 05:44:03;;;;;;;20.40;13.40;;;;;;;8.00;61.26;102017.25;104530;1300;1002997;-69
2022/11/13 05:46:29;;;;;;;24.10;16.40;;;;;;;8.06;60.98;102019.14;106046;1304;21973;-61
2022/11/13 05:48:59;;;;;;;24.90;14.70;;;;;;;8.10;60.86;102018.54;106138;1306;21967;-69
2022/11/13 05:51:29;;;;;;;;;;;;;;;8.16;61.03;102014.65;106035;1306;23632;-70
2022/11/13 05:53:55;;;;;;;19.40;13.20;;;;;;;8.21;61.02;102016.00;105998;1304;21960;-62
2022/11/13 05:56:23;;;;;;;20.70;14.80;;;;;;;8.25;61.09;102013.98;105992;1304;23093;-69
2022/11/13 05:58:49;;;;;;;22.30;15.60;;;;;;;8.30;61.19;102013.93;106026;1306;21982;-68
2022/11/13 06:01:15;;;;;;;23.20;16.50;;;;;;;8.35;61.12;102018.27;105975;1304;21965;-68
2022/11/13 06:03:41;;;;;;;21.70;14.80;;;;;;;8.40;61.11;102021.69;105961;1300;21984;-60
2022/11/13 06:06:08;;;;;;;22.70;15.00;;;;;;;8.45;61.11;102020.41;105973;1304;21968;-69
2022/11/13 06:08:34;;;;;;;20.40;14.30;;;;;;;8.52;61.22;102018.84;106001;1304;21964;-69
2022/11/13 06:11:01;;;;;;;21.30;14.30;;;;;;;8.57;61.18;102019.15;105966;1304;22840;-61
2022/11/13 06:13:27;;;;;;;23.20;15.40;;;;;;;8.64;61.25;102019.63;105981;1304;21963;-68
2022/11/13 06:15:54;;;;;;;20.70;14.10;;;;;;;8.71;61.29;102015.06;105962;1304;23138;-62
2022/11/13 06:18:22;;;;;;;23.30;15.50;;;;;;;8.79;61.29;102016.11;105970;1304;21967;-68
2022/11/13 06:20:50;;;;;;;24.00;15.10;;;;;;;8.88;61.55;102012.95;106034;1304;22024;-68
2022/11/13 06:23:16;;;;;;;22.90;14.60;;;;;;;8.96;61.45;102012.27;106000;1304;21967;-69
2022/11/13 06:25:41;;;;;;;22.00;13.80;;;;;;;9.06;61.43;102012.27;106067;1304;21969;-62
2022/11/13 06:28:07;;;;;;;19.50;14.20;;;;;;;9.17;61.39;102013.71;106022;1301;23947;-63
2022/11/13 06:30:35;;;;;;;21.90;15.90;;;;;;;9.27;61.35;102014.08;106046;1305;21963;-63
2022/11/13 06:33:01;;;;;;;23.50;16.80;;;;;;;9.37;61.47;102016.38;105756;1304;367230;-63
2022/11/13 06:35:27;;;;;;;19.50;13.60;;;;;;;9.47;61.48;102015.88;105987;1304;21975;-69
2022/11/13 06:37:54;;;;;;;22.90;14.80;;;;;;;9.59;61.48;102013.80;106009;1304;22431;-64
2022/11/13 06:40:20;;;;;;;19.90;14.40;;;;;;;9.70;61.42;102011.38;106053;1304;21972;-64
2022/11/13 06:42:46;;;;;;;20.60;14.90;;;;;;;9.83;61.47;102006.16;106005;1301;22076;-68
2022/11/13 06:45:11;;;;;;;23.80;14.70;;;;;;;9.93;61.60;102001.06;105993;1304;21975;-63
2022/11/13 06:47:38;;;;;;;23.70;15.30;;;;;;;10.05;61.59;102002.13;106068;1304;21972;-65
2022/11/13 06:50:05;;;;;;;22.60;14.00;;;;;;;10.19;61.53;102000.05;105881;1306;23746;-67
2022/11/13 06:52:31;;;;;;;21.40;15.00;;;;;;;10.32;61.57;101997.63;106096;1304;21959;-66
2022/11/13 06:54:58;;;;;;;20.30;14.40;;;;;;;10.44;61.68;101993.26;105993;1305;21968;-67
2022/11/13 06:57:24;;;;;;;21.40;14.90;;;;;;;10.55;61.62;101994.30;106064;1305;21988;-68
2022/11/13 06:59:50;;;;;;;20.80;14.80;;;;;;;10.67;61.73;101991.65;105744;1306;23709;-66
2022/11/13 07:02:16;;;;;;;31.20;22.50;;;;;;;10.82;61.65;101986.39;106033;1304;21967;-68
2022/11/13 07:04:42;;;;;;;23.40;16.20;;;;;;;10.92;61.52;101984.58;106016;1304;21962;-66
2022/11/13 07:07:07;;;;;;;21.00;15.90;;;;;;;11.05;61.61;101983.50;105985;1293;21982;-68
2022/11/13 07:09:33;;;;;;;20.90;15.10;;;;;;;11.17;61.34;101982.77;105945;1304;21981;-66
2022/11/13 07:12:00;;;;;;;23.40;15.70;;;;;;;11.24;61.16;101984.95;105994;1304;21981;-67
2022/11/13 07:14:26;;;;;;;18.80;14.00;;;;;;;11.35;61.29;101985.23;105973;1304;21963;-67
2022/11/13 07:16:54;;;;;;;21.70;15.00;;;;;;;11.49;61.48;101985.18;106050;1306;21981;-67
2022/11/13 07:19:20;;;;;;;21.20;14.40;;;;;;;11.61;61.34;101981.60;106002;1304;21978;-67
2022/11/13 07:21:47;;;;;;;21.50;16.00;;;;;;;11.70;61.24;101981.34;105916;1304;21981;-68
2022/11/13 07:24:13;;;;;;;22.40;15.30;;;;;;;11.76;61.12;101978.75;106013;1302;23178;-67
2022/11/13 07:26:39;;;;;;;20.60;14.30;;;;;;;11.88;61.00;101976.21;105972;1301;21960;-68
2022/11/13 07:29:04;;;;;;;21.10;15.20;;;;;;;11.99;60.90;101977.36;105999;1304;23016;-68
2022/11/13 07:31:30;;;;;;;22.90;16.70;;;;;;;12.10;61.02;101979.58;105996;1304;22021;-68
2022/11/13 07:33:55;;;;;;;21.60;14.50;;;;;;;12.18;60.93;101978.56;105997;1306;21959;-68
2022/11/13 07:36:21;;;;;;;22.00;15.20;;;;;;;12.28;60.88;101976.52;105997;1304;21961;-68
2022/11/13 07:38:47;;;;;;;18.20;13.40;;;;;;;12.39;61.08;101979.75;106009;1304;21955;-69
2022/11/13 07:41:13;;;;;;;23.40;15.60;;;;;;;12.51;60.92;101983.17;105973;1302;21968;-66
2022/11/13 07:43:38;;;;;;;24.40;17.30;;;;;;;12.62;60.93;101983.57;105963;1304;21969;-69
2022/11/13 07:46:04;;;;;;;22.50;16.00;;;;;;;12.74;61.13;101978.16;105974;1304;21972;-68
2022/11/13 07:48:30;;;;;;;22.30;15.30;;;;;;;12.87;61.03;101972.75;106015;1304;21965;-67
2022/11/13 07:51:00;;;;;;;21.30;15.90;;;;;;;12.98;60.91;101972.44;105982;1304;22012;-67
2022/11/13 07:53:26;;;;;;;21.40;16.20;;;;;;;13.09;60.73;101971.59;106068;1304;21974;-69
2022/11/13 07:55:52;;;;;;;23.80;17.70;;;;;;;13.15;60.48;101971.77;106045;1304;21962;-67
2022/11/13 07:58:18;;;;;;;23.20;16.20;;;;;;;13.24;60.26;101970.21;105974;1303;22778;-68
2022/11/13 08:00:44;;;;;;;26.90;17.30;;;;;;;13.32;60.49;101967.76;106042;1304;21964;-68
2022/11/13 08:03:14;;;;;;;23.10;17.10;;;;;;;13.43;60.45;101968.69;106017;1304;22093;-68
2022/11/13 08:05:40;;;;;;;20.90;15.50;;;;;;;13.46;60.06;101964.65;106051;1304;21963;-67
2022/11/13 08:08:06;;;;;;;25.10;17.30;;;;;;;13.52;60.18;101962.00;106090;1304;21968;-69
2022/11/13 08:10:32;;;;;;;23.20;17.20;;;;;;;13.61;60.32;101962.02;105884;1304;22005;-68
2022/11/13 08:13:03;;;;;;;23.00;15.80;;;;;;;13.64;59.93;101958.48;106069;1306;21960;-69
2022/11/13 08:15:29;;;;;;;23.60;16.80;;;;;;;13.74;60.21;101959.36;106088;1304;21979;-69
2022/11/13 08:17:56;;;;;;;23.40;17.40;;;;;;;13.88;60.47;101957.94;106025;1303;23156;-68
2022/11/13 08:20:23;;;;;;;22.50;16.20;;;;;;;14.02;60.30;101952.63;106013;1304;23504;-69
2022/11/13 08:22:50;;;;;;;23.60;16.70;;;;;;;14.10;59.87;101955.63;106043;1304;21961;-68
2022/11/13 08:25:16;;;;;;;21.90;15.70;;;;;;;14.17;60.09;101960.20;106013;1304;21980;-69
2022/11/13 08:27:47;;;;;;;27.80;17.30;;;;;;;14.27;59.93;101962.29;106104;1304;21974;-67
2022/11/13 08:30:13;;;;;;;25.90;17.60;;;;;;;14.36;59.88;101961.75;106084;1304;21975;-69
2022/11/13 08:32:39;;;;;;;21.20;17.00;;;;;;;14.44;59.71;101959.61;106073;1301;21970;-67
2022/11/13 08:35:06;;;;;;;23.20;17.80;;;;;;;14.48;59.26;101950.58;106093;1304;21973;-69
2022/11/13 08:37:33;;;;;;;23.50;17.50;;;;;;;14.50;59.06;101948.63;106081;1304;21972;-68
2022/11/13 08:39:59;;;;;;;26.70;18.70;;;;;;;14.55;59.37;101949.33;106025;1304;21971;-67
2022/11/13 08:42:25;;;;;;;23.50;17.50;;;;;;;14.60;59.01;101948.75;106003;1304;21965;-69
2022/11/13 08:44:50;;;;;;;21.20;16.90;;;;;;;14.62;58.75;101947.69;105950;1304;21974;-68
2022/11/13 08:47:16;;;;;;;20.40;15.90;;;;;;;14.68;58.97;101943.09;106049;1306;21980;-69
2022/11/13 08:49:42;;;;;;;22.90;16.80;;;;;;;14.73;59.03;101940.63;106071;1304;22439;-68
2022/11/13 08:52:08;;;;;;;22.10;16.70;;;;;;;14.81;59.02;101942.52;106036;1304;21992;-69
2022/11/13 08:54:33;;;;;;;24.10;17.90;;;;;;;14.92;58.83;101942.30;105987;1300;21978;-68
2022/11/13 08:57:00;;;;;;;22.50;16.90;;;;;;;14.99;58.64;101939.77;106002;1304;22004;-67
2022/11/13 08:59:26;;;;;;;22.40;17.00;;;;;;;15.02;58.27;101942.77;106075;1304;21963;-68
2022/11/13 09:01:58;;;;;;;26.30;18.50;;;;;;;15.11;58.63;101943.77;106126;1304;21982;-68
2022/11/13 09:04:24;;;;;;;26.20;18.00;;;;;;;15.18;58.23;101941.08;106012;1304;22014;-68
2022/11/13 09:06:52;;;;;;;23.40;18.40;;;;;;;15.24;58.37;101933.78;105792;1296;22005;-68
2022/11/13 09:09:19;;;;;;;27.50;19.10;;;;;;;15.28;58.16;101933.77;105970;1300;21957;-68
2022/11/13 09:11:45;;;;;;;25.70;18.50;;;;;;;15.30;58.18;101930.91;106031;1304;21982;-68
2022/11/13 09:14:10;;;;;;;26.80;20.00;;;;;;;15.35;58.24;101926.28;106056;1304;22008;-69
2022/11/13 09:16:36;;;;;;;31.20;21.20;;;;;;;15.34;57.64;101922.94;105996;1304;21972;-69
2022/11/13 09:19:03;;;;;;;27.70;19.00;;;;;;;15.34;57.63;101914.98;105770;1306;21968;-68
2022/11/13 09:21:29;;;;;;;29.30;20.90;;;;;;;15.42;57.98;101911.91;105971;1305;21975;-69
2022/11/13 09:23:55;;;;;;;30.80;20.20;;;;;;;15.49;57.87;101908.48;105843;1304;21967;-68
2022/11/13 09:26:21;;;;;;;26.40;20.00;;;;;;;15.61;57.69;101903.77;106152;1301;21980;-68
2022/11/13 09:28:47;;;;;;;24.20;18.10;;;;;;;15.70;57.49;101904.23;106052;1304;21936;-67
2022/11/13 09:31:15;;;;;;;33.70;20.10;;;;;;;15.70;56.80;101898.20;106076;1304;23152;-67
2022/11/13 09:33:41;;;;;;;25.20;17.90;;;;;;;15.75;57.28;101898.33;105975;1304;22002;-67
2022/11/13 09:36:11;;;;;;;27.90;19.30;;;;;;;15.78;57.32;101895.83;106007;1304;21971;-68
2022/11/13 09:38:37;;;;;;;31.10;20.10;;;;;;;15.74;56.34;101900.66;105804;1305;21967;-68
2022/11/13 09:41:08;;;;;;;25.90;19.00;;;;;;;15.70;56.30;101900.69;106017;1304;21967;-68
2022/11/13 09:43:46;;;;;;;25.30;18.60;;;;;;;15.52;56.01;101901.20;106010;1304;22126;-67
2022/11/13 09:46:15;;;;;;;24.40;17.50;;;;;;;15.46;56.54;101901.08;106126;1300;21981;-68
2022/11/13 09:48:45;;;;;;;24.10;18.10;;;;;;;15.35;56.59;101895.33;106069;1304;21972;-68
2022/11/13 09:51:20;;;;;;;26.40;20.40;;;;;;;15.20;56.54;101892.44;106098;1304;23656;-68
2022/11/13 09:53:47;;;;;;;24.70;17.80;;;;;;;15.05;56.43;101891.65;105985;1304;21964;-68
2022/11/13 09:56:21;;;;;;;26.70;17.50;;;;;;;14.90;56.53;101892.82;106014;1304;21956;-67
2022/11/13 09:59:09;;;;;;;24.50;18.00;;;;;;;14.86;57.13;101899.55;105781;1306;21965;-67
2022/11/13 10:01:50;;;;;;;22.60;16.10;;;;;;;14.85;57.08;101899.92;105920;1305;21961;-67
2022/11/13 10:04:22;;;;;;;21.70;15.40;;;;;;;14.79;57.05;101892.54;105961;1304;21972;-69
2022/11/13 10:06:57;;;;;;;19.40;13.00;;;;;;;14.78;57.25;101890.77;106051;1304;23726;-67
2022/11/13 10:09:31;;;;;;;18.50;12.80;;;;;;;14.78;57.26;101883.88;106036;1301;22001;-68
2022/11/13 10:12:03;;;;;;;19.10;14.00;;;;;;;14.77;56.97;101885.66;106001;1304;22022;-68
2022/11/13 10:14:37;;;;;;;18.20;13.10;;;;;;;14.74;56.98;101886.20;106064;1304;22094;-69
2022/11/13 10:17:27;;;;;;;19.20;13.20;;;;;;;14.72;57.09;101882.32;105970;1304;22737;-68
2022/11/13 10:20:14;;;;;;;17.10;12.90;;;;;;;14.66;57.21;101877.36;105952;1304;21977;-68
2022/11/13 10:22:50;;;;;;;19.80;13.10;;;;;;;14.62;57.28;101877.20;105943;1304;21975;-69
2022/11/13 10:25:25;;;;;;;18.10;13.00;;;;;;;14.60;57.38;101876.70;105955;1304;21966;-68
2022/11/13 10:27:58;;;;;;;17.60;12.50;;;;;;;14.54;57.31;101880.08;105981;1303;21961;-70
2022/11/13 10:33:46;;;;;;;18.10;13.00;;;;;;;14.57;57.69;101876.17;105907;1304;22008;-65
2022/11/13 10:37:11;;;;;;;16.20;11.60;;;;;;;14.60;57.57;101873.15;105928;1304;22029;-64
2022/11/13 10:39:44;;;;;;;14.40;10.30;;;;;;;14.61;57.54;101871.39;105499;1310;21976;-70
2022/11/13 10:42:28;;;;;;;13.90;10.20;;;;;;;14.61;57.42;101869.98;105518;1310;21986;-71
2022/11/13 10:44:57;;;;;;;14.20;10.80;;;;;;;14.61;57.39;101868.03;106005;1306;21971;-70
2022/11/13 10:47:27;;;;;;;15.10;11.10;;;;;;;14.62;57.50;101866.08;106088;1304;23840;-68
2022/11/13 10:49:55;;;;;;;29.10;16.80;;;;;;;14.61;57.55;101868.55;106032;1304;21985;-68
2022/11/13 10:52:26;;;;;;;26.00;13.00;;;;;;;14.61;57.61;101866.80;105993;1304;21957;-68
2022/11/13 10:55:30;;;;;;;18.80;10.30;;;;;;;14.60;57.54;101861.50;106108;1304;21973;-67
2022/11/13 10:58:01;;;;;;;16.40;8.40;;;;;;;14.64;57.52;101857.06;106021;1304;21974;-68
2022/11/13 11:00:32;;;;;;;9.90;6.70;;;;;;;14.66;57.58;101850.34;106015;1304;21965;-67
2022/11/13 11:02:58;;;;;;;10.40;6.80;;;;;;;14.70;57.67;101848.58;105807;1301;21975;-67
2022/11/13 11:05:25;;;;;;;11.10;8.00;;;;;;;14.74;57.67;101847.67;105786;1306;21959;-67
2022/11/13 11:07:53;;;;;;;14.30;10.00;;;;;;;14.75;57.64;101849.79;105778;1304;22029;-67
2022/11/13 11:10:21;;;;;;;20.50;12.10;;;;;;;14.75;57.48;101849.45;105806;1306;23735;-67
2022/11/13 11:12:55;;;;;;;18.90;12.60;;;;;;;14.72;57.49;101848.57;105820;1306;21968;-67
2022/11/13 11:15:35;;;;;;;12.80;9.20;;;;;;;14.72;57.54;101847.52;105789;1306;21968;-67